Pagina principale
METAR-TAF:

METAR-TAF

Aeroporti :

Batman, Turchia

latitudine: 37-52N, longitudine: 041-10E, altezza: 540 m

Osservazione

Il bollettino è stato emesso 33 minuti fa, alle 11:50 UTC
Vento 10 kt da sud/sud-ovest
Temperature 40°C
Umidità 23%
Pressione 1003 hPa
Visibilità 10 km o più
Poco nuvoloso ad un'altezza di 4000 ft

METAR: LTCJ 271150Z 21010KT 9999 FEW040 40/15 Q1003 RMK RWY20 21013KT

Ora: 15:23 (12:23 UTC)

Previsione

Il bollettino è stato emesso 1 ora e 43 minuti fa, alle 10:40 UTC
Previsione valida dal 27 alle 12 UTC al 28 alle 12 UTC
Vento 9 kt da sud-ovest
Visibilità 10 km o più
nessuna nube inferiore a 1500 m e nessun cumulonembo
Evoluzione graduale
dal 27 alle 16 UTC al 27 alle 18 UTC
Vento 12 kt da nord/nord-est
Evoluzione graduale
dal 27 alle 22 UTC al 27 alle 24 UTC
Vento 2 kt da direzioni variabili

TAF: LTCJ 271040Z 2712/2812 22009KT CAVOK BECMG 2716/2718 03012KT BECMG 2722/2724 VRB02KT

Osservazioni e previsioni meteorologiche di più di 4000 aeroporti (messaggi METAR e TAF).

Le stazioni disponibili sono rappresentate dai dischi gialli e rossi sulla carta.

Puntare il mouse per vedere il nome della stazione.

Clicca sopra per visualizzare le osservazioni e previsioni meteorologiche.

Per cambiare la mappa : fare clic sui pulsanti verdi con una croce nera per ingrandire, il pulsante verde con un trattino per diminuire, o sulla freccia verde per le mappe adiacenti.


METAR-TAF: